createdAt,value
2022-10-04T00:01:06.523Z,10.65
2022-10-04T00:03:51.382Z,10.32
2022-10-04T00:06:22.491Z,9.10
2022-10-04T00:08:57.777Z,11.52
2022-10-04T00:11:26.546Z,8.90
2022-10-04T00:13:57.559Z,9.70
2022-10-04T00:16:31.174Z,12.13
2022-10-04T00:19:23.182Z,10.32
2022-10-04T00:21:53.315Z,12.73
2022-10-04T00:24:22.631Z,23.20
2022-10-04T00:26:48.999Z,10.70
2022-10-04T00:29:32.435Z,10.48
2022-10-04T00:32:08.137Z,9.55
2022-10-04T00:34:48.976Z,12.52
2022-10-04T00:37:17.226Z,18.10
2022-10-04T00:39:48.983Z,13.70
2022-10-04T00:43:01.206Z,10.75
2022-10-04T00:45:35.220Z,13.50
2022-10-04T00:48:11.396Z,9.82
2022-10-04T00:50:51.219Z,15.57
2022-10-04T00:53:36.025Z,9.73
2022-10-04T00:56:09.354Z,9.40
2022-10-04T00:59:02.505Z,10.70
2022-10-04T01:01:30.170Z,9.15
2022-10-04T01:04:00.547Z,6.90
2022-10-04T01:06:27.854Z,9.55
2022-10-04T01:09:07.427Z,7.88
2022-10-04T01:11:45.344Z,22.27
2022-10-04T01:14:21.375Z,7.15
2022-10-04T01:16:48.097Z,14.65
2022-10-04T01:19:24.429Z,9.48
2022-10-04T01:22:03.525Z,5.55
2022-10-04T01:24:34.792Z,9.52
2022-10-04T01:27:01.819Z,10.77
2022-10-04T01:29:33.744Z,11.88
2022-10-04T01:32:01.419Z,10.63
2022-10-04T01:34:30.251Z,15.55
2022-10-04T01:37:01.072Z,10.77
2022-10-04T01:39:28.818Z,9.43
2022-10-04T01:42:11.068Z,12.25
2022-10-04T01:44:45.602Z,10.07
2022-10-04T01:47:19.736Z,15.93
2022-10-04T01:49:47.303Z,7.30
2022-10-04T01:52:26.227Z,7.50
2022-10-04T01:55:03.004Z,10.98
2022-10-04T01:57:52.826Z,10.80
2022-10-04T02:00:21.935Z,8.80
2022-10-04T02:02:59.018Z,9.85
2022-10-04T02:05:30.936Z,10.23
2022-10-04T02:08:04.472Z,13.30
2022-10-04T02:10:43.030Z,7.15
2022-10-04T02:13:15.162Z,15.05
2022-10-04T02:15:42.107Z,5.83
2022-10-04T02:18:21.151Z,6.15
2022-10-04T02:20:50.028Z,10.23
2022-10-04T02:23:21.411Z,9.35
2022-10-04T02:25:48.259Z,9.77
2022-10-04T02:28:18.750Z,12.02
2022-10-04T02:31:10.454Z,10.05
2022-10-04T02:33:44.573Z,6.55
2022-10-04T02:36:13.185Z,10.95
2022-10-04T02:38:47.111Z,12.80
2022-10-04T02:41:44.332Z,11.90
2022-10-04T02:44:18.065Z,7.40
2022-10-04T02:46:53.817Z,16.73
2022-10-04T02:49:40.006Z,21.75
2022-10-04T02:52:20.568Z,13.57
2022-10-04T02:54:56.162Z,8.48
2022-10-04T02:57:23.860Z,17.15
2022-10-04T02:59:51.268Z,9.50
2022-10-04T03:02:29.836Z,14.32
2022-10-04T03:05:04.903Z,21.42
2022-10-04T03:07:34.607Z,12.40
2022-10-04T03:10:05.191Z,16.23
2022-10-04T03:12:33.215Z,17.95
2022-10-04T03:14:59.809Z,9.32
2022-10-04T03:17:27.263Z,9.43
2022-10-04T03:19:57.132Z,17.13
2022-10-04T03:22:23.961Z,15.93
2022-10-04T03:24:53.584Z,11.27
2022-10-04T03:27:24.940Z,13.85
2022-10-04T03:29:58.870Z,13.43
2022-10-04T03:32:30.391Z,12.02
2022-10-04T03:35:05.932Z,12.38
2022-10-04T03:37:37.140Z,11.93
2022-10-04T03:40:08.527Z,18.52
2022-10-04T03:42:36.745Z,12.45
2022-10-04T03:45:09.019Z,19.75
2022-10-04T03:47:40.654Z,17.85
2022-10-04T03:50:16.097Z,16.27
2022-10-04T03:52:53.923Z,21.10
2022-10-04T03:55:24.149Z,15.63
2022-10-04T03:57:51.998Z,20.80
2022-10-04T04:00:19.466Z,18.25
2022-10-04T04:02:53.474Z,17.38
2022-10-04T04:05:29.298Z,21.90
2022-10-04T04:08:04.598Z,12.25
2022-10-04T04:10:37.314Z,22.10
2022-10-04T04:13:26.639Z,12.40
2022-10-04T04:15:57.026Z,16.30
2022-10-04T04:18:25.953Z,14.40
2022-10-04T04:20:59.427Z,16.02
2022-10-04T04:23:27.444Z,15.02
2022-10-04T04:25:57.108Z,17.67
2022-10-04T04:28:41.539Z,11.23
2022-10-04T04:31:16.105Z,18.95
2022-10-04T04:34:03.869Z,13.18
2022-10-04T04:36:32.959Z,14.27
2022-10-04T04:39:33.239Z,12.93
2022-10-04T04:42:21.456Z,14.75
2022-10-04T04:45:00.997Z,16.85
2022-10-04T04:47:44.486Z,9.63
2022-10-04T04:50:18.314Z,13.88
2022-10-04T04:52:51.624Z,15.80
2022-10-04T04:55:25.273Z,22.08
2022-10-04T04:57:56.396Z,24.55
2022-10-04T05:00:29.751Z,22.67
2022-10-04T05:02:59.540Z,17.08
2022-10-04T05:05:27.376Z,11.80
2022-10-04T05:08:21.157Z,8.25
2022-10-04T05:10:59.640Z,10.70
2022-10-04T05:13:41.259Z,14.90
2022-10-04T05:16:15.139Z,9.70
2022-10-04T05:18:41.840Z,24.75
2022-10-04T05:21:24.488Z,9.90
2022-10-04T05:23:56.033Z,21.30
2022-10-04T05:26:30.403Z,10.17
2022-10-04T05:29:07.352Z,13.32
2022-10-04T05:31:58.492Z,12.90
2022-10-04T05:34:33.698Z,10.95
2022-10-04T05:37:08.533Z,11.88
2022-10-04T05:39:48.564Z,13.52
2022-10-04T05:42:21.177Z,19.13
2022-10-04T05:44:55.172Z,9.75
2022-10-04T05:47:29.458Z,13.95
2022-10-04T05:49:58.109Z,11.20
2022-10-04T05:52:36.212Z,15.75
2022-10-04T05:55:08.549Z,5.68
2022-10-04T06:00:17.247Z,10.52
2022-10-04T06:03:01.972Z,12.30
2022-10-04T06:05:32.228Z,15.45
2022-10-04T06:08:08.257Z,10.55
2022-10-04T06:10:44.235Z,12.43
2022-10-04T06:13:39.747Z,20.08
2022-10-04T06:16:12.215Z,13.35
2022-10-04T06:19:13.817Z,14.45
2022-10-04T06:21:40.282Z,14.65
2022-10-04T06:24:17.438Z,8.55
2022-10-04T06:26:48.661Z,17.42
2022-10-04T06:29:23.032Z,17.50
2022-10-04T06:31:55.387Z,17.88
2022-10-04T06:34:44.601Z,14.45
2022-10-04T06:37:35.815Z,15.32
2022-10-04T06:40:20.863Z,20.15
2022-10-04T06:43:10.745Z,16.45
2022-10-04T06:45:48.108Z,12.68
2022-10-04T06:48:23.726Z,13.15
2022-10-04T06:51:04.292Z,15.13
2022-10-04T06:53:38.929Z,12.95
2022-10-04T06:56:08.707Z,18.58
2022-10-04T06:58:40.418Z,14.57
2022-10-04T07:01:19.420Z,12.80
2022-10-04T07:03:55.335Z,13.43
2022-10-04T07:06:27.391Z,10.88
2022-10-04T07:09:02.356Z,22.02
2022-10-04T07:11:29.076Z,13.52
2022-10-04T07:14:19.894Z,14.38
2022-10-04T07:17:03.159Z,14.90
2022-10-04T07:19:36.708Z,15.68
2022-10-04T07:22:28.437Z,17.25
2022-10-04T07:25:07.268Z,9.97
2022-10-04T07:27:44.548Z,13.73
2022-10-04T07:30:20.644Z,14.15
2022-10-04T07:32:51.733Z,12.25
2022-10-04T07:35:33.759Z,14.07
2022-10-04T07:38:16.100Z,19.55
2022-10-04T07:41:07.349Z,11.13
2022-10-04T07:43:45.333Z,12.90
2022-10-04T07:46:50.489Z,11.73
2022-10-04T07:49:21.782Z,22.73
2022-10-04T07:52:20.475Z,12.35
2022-10-04T07:55:17.207Z,10.75
2022-10-04T07:58:07.079Z,16.60
2022-10-04T08:00:59.705Z,10.20
2022-10-04T08:06:27.582Z,14.30
2022-10-04T08:09:28.145Z,10.65
2022-10-04T08:12:19.466Z,17.25
2022-10-04T08:15:16.956Z,10.52
2022-10-04T08:18:06.191Z,11.35
2022-10-04T08:20:47.337Z,16.95
2022-10-04T08:23:32.419Z,8.82
2022-10-04T08:26:25.054Z,18.02
2022-10-04T08:29:44.064Z,9.25
2022-10-04T08:32:25.431Z,9.82
2022-10-04T08:35:16.249Z,8.60
2022-10-04T08:38:21.833Z,11.50
2022-10-04T08:41:19.104Z,12.73
2022-10-04T08:43:51.404Z,7.97
2022-10-04T08:46:46.022Z,10.10
2022-10-04T08:49:51.126Z,10.43
2022-10-04T08:52:29.944Z,10.73
2022-10-04T08:55:28.381Z,8.45
2022-10-04T08:58:14.049Z,8.85
2022-10-04T09:01:21.658Z,9.70
2022-10-04T09:04:02.432Z,7.32
2022-10-04T09:06:53.880Z,5.75
2022-10-04T09:09:35.435Z,10.07
2022-10-04T09:12:29.188Z,8.88
2022-10-04T09:15:20.326Z,5.88
2022-10-04T09:17:55.872Z,8.13
2022-10-04T09:20:38.384Z,5.60
2022-10-04T09:23:22.589Z,5.78
2022-10-04T09:26:06.468Z,10.50
2022-10-04T09:29:24.094Z,6.03
2022-10-04T09:32:04.458Z,6.13
2022-10-04T09:34:52.573Z,7.22
2022-10-04T09:37:28.783Z,6.40
2022-10-04T09:40:15.611Z,7.63
2022-10-04T09:43:19.428Z,7.28
2022-10-04T09:46:04.044Z,7.35
2022-10-04T09:48:40.607Z,3.00
2022-10-04T09:51:50.260Z,6.72
2022-10-04T09:54:34.766Z,15.90
2022-10-04T09:57:39.212Z,4.20
2022-10-04T10:00:14.484Z,3.60
2022-10-04T10:02:40.936Z,5.15
2022-10-04T10:05:50.014Z,7.30
2022-10-04T10:08:41.164Z,3.28
2022-10-04T10:12:02.675Z,6.03
2022-10-04T10:14:54.749Z,12.70
2022-10-04T10:17:40.235Z,6.30
2022-10-04T10:20:34.648Z,5.00
2022-10-04T10:23:13.546Z,6.32
2022-10-04T10:25:47.260Z,9.52
2022-10-04T10:28:24.019Z,7.65
2022-10-04T10:31:14.138Z,5.60
2022-10-04T10:34:15.417Z,8.65
2022-10-04T10:37:22.771Z,6.50
2022-10-04T10:39:52.110Z,3.90
2022-10-04T10:42:36.437Z,6.22
2022-10-04T10:45:09.424Z,3.15
2022-10-04T10:47:47.837Z,7.18
2022-10-04T10:50:26.029Z,3.50
2022-10-04T10:53:29.135Z,6.50
2022-10-04T10:56:08.758Z,6.45
2022-10-04T10:58:57.192Z,8.52
2022-10-04T11:01:53.723Z,3.88
2022-10-04T11:04:45.145Z,4.75
2022-10-04T11:07:40.205Z,6.22
2022-10-04T11:10:18.200Z,5.30
2022-10-04T11:13:18.691Z,5.07
2022-10-04T11:16:19.547Z,11.18
2022-10-04T11:19:15.994Z,8.43
2022-10-04T11:22:07.659Z,2.33
2022-10-04T11:25:08.328Z,5.80
2022-10-04T11:27:49.353Z,7.80
2022-10-04T11:30:26.360Z,7.73
2022-10-04T11:33:25.654Z,4.57
2022-10-04T11:36:21.600Z,7.30
2022-10-04T11:38:57.783Z,4.03
2022-10-04T11:41:50.266Z,8.00
2022-10-04T11:47:12.465Z,15.75
2022-10-04T11:50:12.219Z,7.15
2022-10-04T11:52:49.536Z,6.95
2022-10-04T11:55:43.300Z,5.80
2022-10-04T11:58:41.943Z,4.20
2022-10-04T12:01:11.344Z,4.78
2022-10-04T12:03:59.459Z,4.63
2022-10-04T12:06:47.782Z,3.97
2022-10-04T12:09:24.390Z,6.63
2022-10-04T12:12:37.029Z,10.70
2022-10-04T12:18:08.362Z,3.85
2022-10-04T12:21:12.464Z,4.03
2022-10-04T12:23:58.569Z,6.97
2022-10-04T12:26:55.183Z,4.72
2022-10-04T12:29:44.755Z,4.82
2022-10-04T12:32:34.504Z,4.25
2022-10-04T12:35:22.339Z,6.63
2022-10-04T12:38:20.393Z,5.28
2022-10-04T12:40:55.203Z,5.15
2022-10-04T12:43:30.873Z,6.10
2022-10-04T12:46:21.766Z,2.70
2022-10-04T12:48:54.022Z,13.23
2022-10-04T12:51:49.456Z,2.90
2022-10-04T12:54:33.245Z,4.43
2022-10-04T12:57:08.807Z,6.78
2022-10-04T13:00:00.075Z,6.32
2022-10-04T13:02:54.711Z,3.80
2022-10-04T13:05:32.664Z,4.40
2022-10-04T13:08:15.799Z,10.85
2022-10-04T13:10:53.701Z,9.68
2022-10-04T13:13:41.284Z,4.65
2022-10-04T13:19:54.977Z,5.55
2022-10-04T13:22:55.511Z,3.35
2022-10-04T13:25:40.259Z,4.88
2022-10-04T13:28:29.598Z,2.80
2022-10-04T13:31:08.030Z,5.13
2022-10-04T13:33:49.349Z,6.13
2022-10-04T13:36:44.578Z,3.83
2022-10-04T13:39:32.511Z,7.63
2022-10-04T13:42:12.604Z,6.63
2022-10-04T13:45:00.729Z,3.63
2022-10-04T13:47:55.089Z,9.50
2022-10-04T13:50:42.641Z,9.00
2022-10-04T13:53:54.218Z,14.05
2022-10-04T13:57:16.406Z,7.83
2022-10-04T14:00:14.962Z,7.73
2022-10-04T14:02:59.223Z,4.93
2022-10-04T14:05:51.114Z,9.88
2022-10-04T14:08:58.407Z,4.72
2022-10-04T14:11:38.808Z,6.55
2022-10-04T14:14:18.999Z,3.42
2022-10-04T14:17:15.896Z,3.95
2022-10-04T14:19:58.242Z,12.88
2022-10-04T14:23:01.951Z,3.80
2022-10-04T14:25:34.440Z,4.50
2022-10-04T14:28:15.498Z,6.07
2022-10-04T14:31:01.925Z,3.53
2022-10-04T14:33:30.999Z,4.50
2022-10-04T14:36:08.279Z,9.27
2022-10-04T14:38:34.687Z,5.50
2022-10-04T14:41:13.153Z,6.93
2022-10-04T14:44:04.483Z,4.43
2022-10-04T14:46:54.222Z,10.07
2022-10-04T14:49:30.034Z,6.30
2022-10-04T14:52:14.317Z,5.97
2022-10-04T14:55:04.489Z,4.85
2022-10-04T14:58:06.830Z,6.00
2022-10-04T15:01:06.976Z,6.35
2022-10-04T15:04:07.090Z,3.05
2022-10-04T15:06:43.255Z,7.55
2022-10-04T15:09:42.333Z,5.45
2022-10-04T15:12:51.883Z,3.08
2022-10-04T15:15:29.628Z,9.48
2022-10-04T15:18:04.081Z,5.45
2022-10-04T15:20:34.266Z,2.80
2022-10-04T15:23:13.347Z,8.38
2022-10-04T15:25:51.975Z,3.55
2022-10-04T15:28:36.669Z,5.90
2022-10-04T15:31:21.976Z,4.60
2022-10-04T15:33:57.262Z,9.90
2022-10-04T15:36:27.160Z,4.95
2022-10-04T15:39:05.103Z,3.60
2022-10-04T15:41:46.202Z,2.70
2022-10-04T15:44:33.284Z,3.08
2022-10-04T15:47:22.080Z,4.47
2022-10-04T15:50:00.602Z,6.32
2022-10-04T15:52:45.786Z,6.00
2022-10-04T15:55:36.459Z,7.45
2022-10-04T15:58:31.113Z,4.60
2022-10-04T16:01:20.991Z,8.80
2022-10-04T16:04:22.068Z,8.90
2022-10-04T16:07:20.684Z,16.92
2022-10-04T16:10:07.276Z,15.07
2022-10-04T16:13:01.322Z,9.73
2022-10-04T16:15:31.995Z,12.52
2022-10-04T16:18:27.313Z,5.55
2022-10-04T16:21:15.879Z,7.03
2022-10-04T16:23:46.143Z,2.05
2022-10-04T16:26:33.924Z,7.13
2022-10-04T16:29:11.705Z,6.15
2022-10-04T16:31:57.470Z,3.47
2022-10-04T16:34:45.081Z,5.72
2022-10-04T16:37:23.613Z,7.10
2022-10-04T16:39:59.142Z,15.57
2022-10-04T16:42:48.262Z,14.45
2022-10-04T16:45:59.905Z,5.90
2022-10-04T16:48:41.541Z,6.97
2022-10-04T16:51:17.112Z,8.30
2022-10-04T16:54:24.788Z,3.78
2022-10-04T16:56:57.238Z,4.40
2022-10-04T16:59:39.093Z,3.33
2022-10-04T17:02:30.575Z,9.85
2022-10-04T17:05:05.862Z,4.65
2022-10-04T17:08:07.103Z,3.50
2022-10-04T17:10:38.970Z,8.88
2022-10-04T17:13:29.457Z,3.17
2022-10-04T17:16:39.130Z,9.63
2022-10-04T17:19:44.155Z,19.60
2022-10-04T17:22:33.364Z,21.20
2022-10-04T17:25:22.231Z,24.90
2022-10-04T17:28:17.152Z,19.75
2022-10-04T17:31:15.453Z,13.00
2022-10-04T17:34:01.591Z,15.98
2022-10-04T17:36:38.786Z,65.25
2022-10-04T17:39:23.238Z,36.45
2022-10-04T17:41:58.120Z,20.52
2022-10-04T17:44:27.828Z,17.05
2022-10-04T17:47:08.623Z,14.93
2022-10-04T17:50:19.166Z,12.63
2022-10-04T17:53:13.105Z,17.40
2022-10-04T17:55:53.705Z,22.23
2022-10-04T17:58:26.608Z,11.60
2022-10-04T18:01:09.971Z,12.27
2022-10-04T18:03:42.452Z,14.95
2022-10-04T18:06:33.983Z,19.48
2022-10-04T18:09:15.995Z,8.93
2022-10-04T18:11:49.656Z,16.70
2022-10-04T18:14:41.935Z,17.70
2022-10-04T18:17:22.876Z,20.92
2022-10-04T18:20:07.619Z,25.88
2022-10-04T18:22:46.887Z,31.80
2022-10-04T18:25:26.092Z,16.50
2022-10-04T18:28:07.953Z,34.15
2022-10-04T18:30:53.760Z,34.55
2022-10-04T18:33:26.866Z,39.15
2022-10-04T18:36:19.468Z,37.22
2022-10-04T18:41:15.872Z,28.23
2022-10-04T18:43:51.545Z,34.28
2022-10-04T18:46:22.408Z,26.48
2022-10-04T18:48:54.831Z,27.63
2022-10-04T18:51:21.209Z,19.48
2022-10-04T18:53:54.680Z,26.48
2022-10-04T18:56:24.128Z,18.17
2022-10-04T18:59:38.383Z,13.00
2022-10-04T19:02:29.394Z,18.90
2022-10-04T19:05:11.743Z,27.40
2022-10-04T19:07:54.529Z,33.05
2022-10-04T19:10:31.581Z,21.42
2022-10-04T19:13:07.194Z,19.25
2022-10-04T19:16:18.687Z,38.25
2022-10-04T19:19:23.519Z,24.17
2022-10-04T19:22:02.268Z,25.30
2022-10-04T19:24:41.581Z,23.25
2022-10-04T19:27:30.456Z,24.30
2022-10-04T19:30:14.991Z,29.70
2022-10-04T19:32:47.621Z,24.17
2022-10-04T19:35:35.019Z,46.47
2022-10-04T19:38:42.075Z,34.40
2022-10-04T19:41:17.238Z,37.38
2022-10-04T19:44:08.586Z,19.65
2022-10-04T19:47:04.612Z,19.92
2022-10-04T19:49:45.229Z,14.65
2022-10-04T19:52:23.348Z,18.17
2022-10-04T19:55:01.813Z,13.20
2022-10-04T19:57:39.285Z,14.55
2022-10-04T20:00:16.741Z,11.27
2022-10-04T20:02:48.431Z,14.45
2022-10-04T20:05:24.777Z,10.02
2022-10-04T20:07:57.752Z,8.65
2022-10-04T20:10:33.468Z,12.13
2022-10-04T20:13:23.372Z,9.20
2022-10-04T20:15:52.363Z,12.52
2022-10-04T20:18:36.140Z,8.45
2022-10-04T20:21:08.454Z,8.90
2022-10-04T20:23:40.695Z,8.05
2022-10-04T20:26:11.729Z,8.40
2022-10-04T20:28:41.943Z,11.68
2022-10-04T20:31:32.869Z,17.42
2022-10-04T20:34:33.282Z,7.20
2022-10-04T20:37:00.085Z,6.47
2022-10-04T20:39:41.707Z,5.70
2022-10-04T20:42:19.639Z,9.25
2022-10-04T20:44:56.926Z,13.80
2022-10-04T20:47:39.309Z,12.52
2022-10-04T20:52:37.907Z,7.25
2022-10-04T20:55:32.898Z,8.25
2022-10-04T20:58:20.812Z,5.82
2022-10-04T21:00:53.491Z,11.15
2022-10-04T21:03:25.557Z,9.40
2022-10-04T21:06:08.570Z,7.13
2022-10-04T21:08:38.635Z,4.75
2022-10-04T21:11:18.523Z,7.70
2022-10-04T21:13:57.255Z,9.35
2022-10-04T21:16:33.458Z,15.68
2022-10-04T21:19:28.410Z,12.27
2022-10-04T21:21:54.974Z,7.90
2022-10-04T21:24:37.950Z,4.78
2022-10-04T21:27:08.666Z,5.25
2022-10-04T21:29:40.429Z,3.75
2022-10-04T21:32:07.076Z,7.97
2022-10-04T21:34:53.785Z,11.07
2022-10-04T21:37:20.961Z,5.78
2022-10-04T21:39:47.437Z,6.10
2022-10-04T21:42:16.172Z,6.30
2022-10-04T21:44:42.689Z,8.77
2022-10-04T21:47:10.047Z,5.32
2022-10-04T21:49:36.710Z,4.78
2022-10-04T21:52:03.320Z,5.40
2022-10-04T21:54:32.090Z,6.47
2022-10-04T21:57:01.078Z,8.90
2022-10-04T21:59:27.501Z,5.45
2022-10-04T22:01:54.048Z,6.50
2022-10-04T22:04:20.471Z,6.60
2022-10-04T22:06:49.685Z,7.80
2022-10-04T22:09:16.306Z,6.55
2022-10-04T22:11:42.660Z,7.03
2022-10-04T22:14:09.068Z,6.15
2022-10-04T22:16:35.533Z,9.85
2022-10-04T22:19:01.976Z,11.63
2022-10-04T22:21:28.376Z,8.38
2022-10-04T22:23:54.788Z,8.80
2022-10-04T22:26:22.556Z,9.50
2022-10-04T22:28:54.935Z,7.25
2022-10-04T22:31:28.766Z,8.15
2022-10-04T22:33:56.232Z,6.80
2022-10-04T22:36:55.190Z,7.50
2022-10-04T22:39:22.040Z,6.47
2022-10-04T22:41:53.653Z,7.20
2022-10-04T22:44:46.300Z,8.43
2022-10-04T22:49:43.592Z,9.35
2022-10-04T22:52:19.260Z,10.32
2022-10-04T22:54:48.646Z,10.05
2022-10-04T22:57:19.347Z,24.08
2022-10-04T22:59:50.000Z,17.02
2022-10-04T23:02:17.579Z,10.80
2022-10-04T23:04:51.975Z,4.80
2022-10-04T23:07:19.224Z,10.77
2022-10-04T23:09:46.113Z,15.52
2022-10-04T23:12:15.372Z,10.23
2022-10-04T23:14:41.958Z,7.47
2022-10-04T23:17:22.983Z,6.55
2022-10-04T23:19:56.389Z,4.00
2022-10-04T23:22:27.817Z,9.02
2022-10-04T23:24:55.446Z,6.13
2022-10-04T23:27:21.912Z,6.55
2022-10-04T23:29:55.663Z,9.55
2022-10-04T23:32:22.010Z,11.98
2022-10-04T23:34:56.677Z,4.03
2022-10-04T23:37:27.371Z,10.75
2022-10-04T23:39:54.020Z,5.25
2022-10-04T23:42:33.658Z,4.38
2022-10-04T23:45:01.577Z,6.85
2022-10-04T23:47:34.760Z,4.45
2022-10-04T23:50:01.615Z,7.25
2022-10-04T23:52:38.983Z,9.57
2022-10-04T23:55:19.828Z,9.18
2022-10-04T23:57:46.654Z,5.93
